sensor_id;sensor_type;location;lat;lon;timestamp;P1;durP1;ratioP1;P2;durP2;ratioP2
15931;SDS011;8065;49.520;11.284;2023-02-22T00:01:08;6.30;;;4.40;;
15931;SDS011;8065;49.520;11.284;2023-02-22T00:03:46;5.80;;;4.27;;
15931;SDS011;8065;49.520;11.284;2023-02-22T00:06:14;6.10;;;4.17;;
15931;SDS011;8065;49.520;11.284;2023-02-22T00:08:45;4.50;;;3.93;;
15931;SDS011;8065;49.520;11.284;2023-02-22T00:11:14;4.97;;;4.47;;
15931;SDS011;8065;49.520;11.284;2023-02-22T00:13:41;6.10;;;4.70;;
15931;SDS011;8065;49.520;11.284;2023-02-22T00:16:09;5.03;;;4.07;;
15931;SDS011;8065;49.520;11.284;2023-02-22T00:18:39;5.10;;;4.03;;
15931;SDS011;8065;49.520;11.284;2023-02-22T00:21:05;5.47;;;4.30;;
15931;SDS011;8065;49.520;11.284;2023-02-22T00:23:34;5.57;;;4.60;;
15931;SDS011;8065;49.520;11.284;2023-02-22T00:26:05;4.23;;;3.60;;
15931;SDS011;8065;49.520;11.284;2023-02-22T00:28:35;6.63;;;4.50;;
15931;SDS011;8065;49.520;11.284;2023-02-22T00:31:02;5.37;;;4.07;;
15931;SDS011;8065;49.520;11.284;2023-02-22T00:33:29;5.10;;;4.00;;
15931;SDS011;8065;49.520;11.284;2023-02-22T00:35:56;7.17;;;4.20;;
15931;SDS011;8065;49.520;11.284;2023-02-22T00:38:23;5.33;;;3.97;;
15931;SDS011;8065;49.520;11.284;2023-02-22T00:40:50;5.37;;;4.27;;
15931;SDS011;8065;49.520;11.284;2023-02-22T00:43:18;5.57;;;4.10;;
15931;SDS011;8065;49.520;11.284;2023-02-22T00:45:45;6.30;;;4.10;;
15931;SDS011;8065;49.520;11.284;2023-02-22T00:48:11;6.67;;;4.33;;
15931;SDS011;8065;49.520;11.284;2023-02-22T00:50:37;7.20;;;5.37;;
15931;SDS011;8065;49.520;11.284;2023-02-22T00:53:04;7.53;;;4.60;;
15931;SDS011;8065;49.520;11.284;2023-02-22T00:55:34;7.50;;;4.70;;
15931;SDS011;8065;49.520;11.284;2023-02-22T00:58:02;5.33;;;4.50;;
15931;SDS011;8065;49.520;11.284;2023-02-22T01:00:31;6.30;;;4.50;;
15931;SDS011;8065;49.520;11.284;2023-02-22T01:03:01;5.40;;;4.50;;
15931;SDS011;8065;49.520;11.284;2023-02-22T01:05:29;7.37;;;4.53;;
15931;SDS011;8065;49.520;11.284;2023-02-22T01:07:56;4.50;;;4.10;;
15931;SDS011;8065;49.520;11.284;2023-02-22T01:10:25;6.93;;;4.70;;
15931;SDS011;8065;49.520;11.284;2023-02-22T01:12:53;6.83;;;5.00;;
15931;SDS011;8065;49.520;11.284;2023-02-22T01:15:21;5.07;;;4.23;;
15931;SDS011;8065;49.520;11.284;2023-02-22T01:17:51;5.10;;;4.33;;
15931;SDS011;8065;49.520;11.284;2023-02-22T01:20:19;7.80;;;4.47;;
15931;SDS011;8065;49.520;11.284;2023-02-22T01:22:48;5.70;;;4.20;;
15931;SDS011;8065;49.520;11.284;2023-02-22T01:25:18;5.27;;;4.77;;
15931;SDS011;8065;49.520;11.284;2023-02-22T01:27:46;4.77;;;4.27;;
15931;SDS011;8065;49.520;11.284;2023-02-22T01:30:14;6.40;;;4.60;;
15931;SDS011;8065;49.520;11.284;2023-02-22T01:32:42;6.40;;;4.73;;
15931;SDS011;8065;49.520;11.284;2023-02-22T01:35:12;5.07;;;4.43;;
15931;SDS011;8065;49.520;11.284;2023-02-22T01:37:40;5.50;;;4.47;;
15931;SDS011;8065;49.520;11.284;2023-02-22T01:40:08;6.77;;;4.90;;
15931;SDS011;8065;49.520;11.284;2023-02-22T01:42:36;6.10;;;4.13;;
15931;SDS011;8065;49.520;11.284;2023-02-22T01:48:07;6.10;;;4.50;;
15931;SDS011;8065;49.520;11.284;2023-02-22T01:50:39;7.70;;;4.30;;
15931;SDS011;8065;49.520;11.284;2023-02-22T01:53:09;5.27;;;4.23;;
15931;SDS011;8065;49.520;11.284;2023-02-22T01:55:38;6.37;;;4.33;;
15931;SDS011;8065;49.520;11.284;2023-02-22T01:58:05;6.83;;;4.63;;
15931;SDS011;8065;49.520;11.284;2023-02-22T02:00:33;5.20;;;4.00;;
15931;SDS011;8065;49.520;11.284;2023-02-22T02:03:01;5.20;;;4.10;;
15931;SDS011;8065;49.520;11.284;2023-02-22T02:05:32;5.17;;;4.30;;
15931;SDS011;8065;49.520;11.284;2023-02-22T02:08:04;5.17;;;3.90;;
15931;SDS011;8065;49.520;11.284;2023-02-22T02:10:38;6.77;;;4.03;;
15931;SDS011;8065;49.520;11.284;2023-02-22T02:13:06;6.23;;;4.00;;
15931;SDS011;8065;49.520;11.284;2023-02-22T02:15:34;5.70;;;4.10;;
15931;SDS011;8065;49.520;11.284;2023-02-22T02:18:01;5.03;;;3.97;;
15931;SDS011;8065;49.520;11.284;2023-02-22T02:20:31;3.70;;;3.40;;
15931;SDS011;8065;49.520;11.284;2023-02-22T02:23:07;4.17;;;3.70;;
15931;SDS011;8065;49.520;11.284;2023-02-22T02:26:03;6.07;;;3.90;;
15931;SDS011;8065;49.520;11.284;2023-02-22T02:31:57;5.90;;;3.73;;
15931;SDS011;8065;49.520;11.284;2023-02-22T02:34:32;4.13;;;3.73;;
15931;SDS011;8065;49.520;11.284;2023-02-22T02:37:06;6.13;;;4.53;;
15931;SDS011;8065;49.520;11.284;2023-02-22T02:39:37;4.80;;;3.70;;
15931;SDS011;8065;49.520;11.284;2023-02-22T02:42:09;6.03;;;3.60;;
15931;SDS011;8065;49.520;11.284;2023-02-22T02:44:40;4.63;;;4.00;;
15931;SDS011;8065;49.520;11.284;2023-02-22T02:47:13;5.07;;;4.13;;
15931;SDS011;8065;49.520;11.284;2023-02-22T02:49:45;5.87;;;3.80;;
15931;SDS011;8065;49.520;11.284;2023-02-22T02:52:17;4.40;;;3.50;;
15931;SDS011;8065;49.520;11.284;2023-02-22T02:54:45;4.70;;;3.97;;
15931;SDS011;8065;49.520;11.284;2023-02-22T02:57:14;4.30;;;3.90;;
15931;SDS011;8065;49.520;11.284;2023-02-22T02:59:40;4.10;;;3.70;;
15931;SDS011;8065;49.520;11.284;2023-02-22T03:02:10;4.37;;;3.97;;
15931;SDS011;8065;49.520;11.284;2023-02-22T03:04:51;4.13;;;3.53;;
15931;SDS011;8065;49.520;11.284;2023-02-22T03:07:33;5.60;;;3.60;;
15931;SDS011;8065;49.520;11.284;2023-02-22T03:10:14;4.53;;;3.80;;
15931;SDS011;8065;49.520;11.284;2023-02-22T03:12:59;5.47;;;3.70;;
15931;SDS011;8065;49.520;11.284;2023-02-22T03:15:35;4.30;;;3.87;;
15931;SDS011;8065;49.520;11.284;2023-02-22T03:18:11;4.53;;;3.90;;
15931;SDS011;8065;49.520;11.284;2023-02-22T03:20:47;4.43;;;4.03;;
15931;SDS011;8065;49.520;11.284;2023-02-22T03:23:20;4.27;;;3.83;;
15931;SDS011;8065;49.520;11.284;2023-02-22T03:25:50;5.47;;;4.00;;
15931;SDS011;8065;49.520;11.284;2023-02-22T03:28:19;4.57;;;3.90;;
15931;SDS011;8065;49.520;11.284;2023-02-22T03:30:51;4.23;;;3.57;;
15931;SDS011;8065;49.520;11.284;2023-02-22T03:33:24;4.57;;;3.67;;
15931;SDS011;8065;49.520;11.284;2023-02-22T03:35:58;4.20;;;3.80;;
15931;SDS011;8065;49.520;11.284;2023-02-22T03:38:28;4.23;;;3.60;;
15931;SDS011;8065;49.520;11.284;2023-02-22T03:40:58;4.53;;;4.07;;
15931;SDS011;8065;49.520;11.284;2023-02-22T03:43:29;4.37;;;3.97;;
15931;SDS011;8065;49.520;11.284;2023-02-22T03:45:59;5.27;;;4.43;;
15931;SDS011;8065;49.520;11.284;2023-02-22T03:48:31;4.20;;;3.80;;
15931;SDS011;8065;49.520;11.284;2023-02-22T03:51:03;6.77;;;4.10;;
15931;SDS011;8065;49.520;11.284;2023-02-22T03:53:31;4.67;;;3.93;;
15931;SDS011;8065;49.520;11.284;2023-02-22T03:56:01;5.50;;;3.73;;
15931;SDS011;8065;49.520;11.284;2023-02-22T03:58:32;4.80;;;4.00;;
15931;SDS011;8065;49.520;11.284;2023-02-22T04:01:02;4.63;;;4.17;;
15931;SDS011;8065;49.520;11.284;2023-02-22T04:03:30;4.60;;;4.10;;
15931;SDS011;8065;49.520;11.284;2023-02-22T04:05:57;5.43;;;4.00;;
15931;SDS011;8065;49.520;11.284;2023-02-22T04:08:23;4.33;;;3.93;;
15931;SDS011;8065;49.520;11.284;2023-02-22T04:10:49;6.00;;;4.43;;
15931;SDS011;8065;49.520;11.284;2023-02-22T04:13:16;4.90;;;4.40;;
15931;SDS011;8065;49.520;11.284;2023-02-22T04:15:43;5.07;;;4.23;;
15931;SDS011;8065;49.520;11.284;2023-02-22T04:18:09;5.20;;;4.10;;
15931;SDS011;8065;49.520;11.284;2023-02-22T04:20:37;4.23;;;3.83;;
15931;SDS011;8065;49.520;11.284;2023-02-22T04:23:03;7.20;;;4.13;;
15931;SDS011;8065;49.520;11.284;2023-02-22T04:25:30;4.53;;;3.83;;
15931;SDS011;8065;49.520;11.284;2023-02-22T04:27:57;4.17;;;3.80;;
15931;SDS011;8065;49.520;11.284;2023-02-22T04:30:24;5.07;;;4.30;;
15931;SDS011;8065;49.520;11.284;2023-02-22T04:32:52;4.23;;;3.90;;
15931;SDS011;8065;49.520;11.284;2023-02-22T04:35:18;4.67;;;3.37;;
15931;SDS011;8065;49.520;11.284;2023-02-22T04:37:46;4.40;;;4.00;;
15931;SDS011;8065;49.520;11.284;2023-02-22T04:40:14;4.20;;;3.80;;
15931;SDS011;8065;49.520;11.284;2023-02-22T04:42:42;4.50;;;3.33;;
15931;SDS011;8065;49.520;11.284;2023-02-22T04:45:09;4.17;;;3.80;;
15931;SDS011;8065;49.520;11.284;2023-02-22T04:47:36;4.43;;;3.53;;
15931;SDS011;8065;49.520;11.284;2023-02-22T04:50:03;4.27;;;3.73;;
15931;SDS011;8065;49.520;11.284;2023-02-22T04:52:31;5.17;;;4.07;;
15931;SDS011;8065;49.520;11.284;2023-02-22T04:54:59;5.13;;;3.77;;
15931;SDS011;8065;49.520;11.284;2023-02-22T04:57:26;5.83;;;3.97;;
15931;SDS011;8065;49.520;11.284;2023-02-22T04:59:52;4.93;;;3.73;;
15931;SDS011;8065;49.520;11.284;2023-02-22T05:02:25;4.00;;;3.60;;
15931;SDS011;8065;49.520;11.284;2023-02-22T05:04:51;3.90;;;3.60;;
15931;SDS011;8065;49.520;11.284;2023-02-22T05:07:18;3.80;;;3.50;;
15931;SDS011;8065;49.520;11.284;2023-02-22T05:09:44;4.03;;;3.63;;
15931;SDS011;8065;49.520;11.284;2023-02-22T05:12:12;4.50;;;4.10;;
15931;SDS011;8065;49.520;11.284;2023-02-22T05:14:39;4.37;;;3.50;;
15931;SDS011;8065;49.520;11.284;2023-02-22T05:17:06;4.10;;;3.70;;
15931;SDS011;8065;49.520;11.284;2023-02-22T05:19:33;4.33;;;3.77;;
15931;SDS011;8065;49.520;11.284;2023-02-22T05:22:01;4.33;;;3.93;;
15931;SDS011;8065;49.520;11.284;2023-02-22T05:24:29;4.33;;;3.63;;
15931;SDS011;8065;49.520;11.284;2023-02-22T05:26:56;6.00;;;4.40;;
15931;SDS011;8065;49.520;11.284;2023-02-22T05:29:24;5.47;;;4.60;;
15931;SDS011;8065;49.520;11.284;2023-02-22T05:31:50;4.50;;;4.10;;
15931;SDS011;8065;49.520;11.284;2023-02-22T05:34:17;4.50;;;3.43;;
15931;SDS011;8065;49.520;11.284;2023-02-22T05:36:43;3.73;;;3.30;;
15931;SDS011;8065;49.520;11.284;2023-02-22T05:39:10;4.60;;;3.20;;
15931;SDS011;8065;49.520;11.284;2023-02-22T05:41:37;4.07;;;3.47;;
15931;SDS011;8065;49.520;11.284;2023-02-22T05:44:03;4.60;;;4.07;;
15931;SDS011;8065;49.520;11.284;2023-02-22T05:46:33;4.60;;;4.00;;
15931;SDS011;8065;49.520;11.284;2023-02-22T05:49:00;4.13;;;3.73;;
15931;SDS011;8065;49.520;11.284;2023-02-22T05:51:27;4.73;;;4.10;;
15931;SDS011;8065;49.520;11.284;2023-02-22T05:53:53;4.43;;;3.60;;
15931;SDS011;8065;49.520;11.284;2023-02-22T05:56:20;4.87;;;4.20;;
15931;SDS011;8065;49.520;11.284;2023-02-22T05:58:48;7.30;;;4.00;;
15931;SDS011;8065;49.520;11.284;2023-02-22T06:01:14;4.53;;;4.03;;
15931;SDS011;8065;49.520;11.284;2023-02-22T06:03:43;5.50;;;4.30;;
15931;SDS011;8065;49.520;11.284;2023-02-22T06:06:12;5.27;;;4.23;;
15931;SDS011;8065;49.520;11.284;2023-02-22T06:08:39;4.73;;;3.93;;
15931;SDS011;8065;49.520;11.284;2023-02-22T06:11:05;5.73;;;4.07;;
15931;SDS011;8065;49.520;11.284;2023-02-22T06:13:33;4.70;;;4.23;;
15931;SDS011;8065;49.520;11.284;2023-02-22T06:16:00;5.17;;;4.30;;
15931;SDS011;8065;49.520;11.284;2023-02-22T06:18:27;5.30;;;4.80;;
15931;SDS011;8065;49.520;11.284;2023-02-22T06:20:56;8.63;;;5.60;;
15931;SDS011;8065;49.520;11.284;2023-02-22T06:23:23;12.00;;;5.70;;
15931;SDS011;8065;49.520;11.284;2023-02-22T06:25:50;7.60;;;5.20;;
15931;SDS011;8065;49.520;11.284;2023-02-22T06:28:16;6.03;;;5.30;;
15931;SDS011;8065;49.520;11.284;2023-02-22T06:30:43;7.07;;;6.10;;
15931;SDS011;8065;49.520;11.284;2023-02-22T06:33:10;6.73;;;5.60;;
15931;SDS011;8065;49.520;11.284;2023-02-22T06:35:37;10.60;;;6.23;;
15931;SDS011;8065;49.520;11.284;2023-02-22T06:38:04;11.10;;;6.53;;
15931;SDS011;8065;49.520;11.284;2023-02-22T06:40:31;7.27;;;5.93;;
15931;SDS011;8065;49.520;11.284;2023-02-22T06:42:57;14.10;;;7.03;;
15931;SDS011;8065;49.520;11.284;2023-02-22T06:45:24;11.87;;;9.23;;
15931;SDS011;8065;49.520;11.284;2023-02-22T06:47:51;28.97;;;19.90;;
15931;SDS011;8065;49.520;11.284;2023-02-22T06:50:19;31.30;;;20.40;;
15931;SDS011;8065;49.520;11.284;2023-02-22T06:52:47;28.87;;;20.00;;
15931;SDS011;8065;49.520;11.284;2023-02-22T06:55:19;24.43;;;19.73;;
15931;SDS011;8065;49.520;11.284;2023-02-22T06:57:47;11.90;;;9.97;;
15931;SDS011;8065;49.520;11.284;2023-02-22T07:00:14;8.17;;;7.30;;
15931;SDS011;8065;49.520;11.284;2023-02-22T07:02:41;7.30;;;5.83;;
15931;SDS011;8065;49.520;11.284;2023-02-22T07:05:08;8.03;;;7.23;;
15931;SDS011;8065;49.520;11.284;2023-02-22T07:07:36;8.27;;;7.47;;
15931;SDS011;8065;49.520;11.284;2023-02-22T07:10:03;9.80;;;7.10;;
15931;SDS011;8065;49.520;11.284;2023-02-22T07:12:32;7.87;;;7.07;;
15931;SDS011;8065;49.520;11.284;2023-02-22T07:14:58;7.90;;;7.20;;
15931;SDS011;8065;49.520;11.284;2023-02-22T07:17:25;11.77;;;9.57;;
15931;SDS011;8065;49.520;11.284;2023-02-22T07:19:51;9.87;;;8.60;;
15931;SDS011;8065;49.520;11.284;2023-02-22T07:22:18;7.90;;;7.10;;
15931;SDS011;8065;49.520;11.284;2023-02-22T07:24:45;8.33;;;6.97;;
15931;SDS011;8065;49.520;11.284;2023-02-22T07:27:12;10.37;;;8.70;;
15931;SDS011;8065;49.520;11.284;2023-02-22T07:29:40;7.97;;;7.13;;
15931;SDS011;8065;49.520;11.284;2023-02-22T07:32:07;8.10;;;7.30;;
15931;SDS011;8065;49.520;11.284;2023-02-22T07:34:34;9.17;;;7.17;;
15931;SDS011;8065;49.520;11.284;2023-02-22T07:37:01;10.10;;;8.20;;
15931;SDS011;8065;49.520;11.284;2023-02-22T07:39:28;9.70;;;8.13;;
15931;SDS011;8065;49.520;11.284;2023-02-22T07:41:54;10.40;;;8.27;;
15931;SDS011;8065;49.520;11.284;2023-02-22T07:44:20;10.87;;;8.27;;
15931;SDS011;8065;49.520;11.284;2023-02-22T07:46:48;9.33;;;7.73;;
15931;SDS011;8065;49.520;11.284;2023-02-22T07:49:15;8.13;;;7.20;;
15931;SDS011;8065;49.520;11.284;2023-02-22T07:51:41;8.97;;;7.87;;
15931;SDS011;8065;49.520;11.284;2023-02-22T07:54:08;10.40;;;8.60;;
15931;SDS011;8065;49.520;11.284;2023-02-22T07:56:34;9.77;;;8.10;;
15931;SDS011;8065;49.520;11.284;2023-02-22T07:59:01;11.23;;;8.70;;
15931;SDS011;8065;49.520;11.284;2023-02-22T08:01:27;10.10;;;8.00;;
15931;SDS011;8065;49.520;11.284;2023-02-22T08:03:57;9.67;;;8.00;;
15931;SDS011;8065;49.520;11.284;2023-02-22T08:06:23;10.93;;;8.53;;
15931;SDS011;8065;49.520;11.284;2023-02-22T08:08:52;10.33;;;8.30;;
15931;SDS011;8065;49.520;11.284;2023-02-22T08:11:18;10.13;;;9.03;;
15931;SDS011;8065;49.520;11.284;2023-02-22T08:13:45;11.23;;;9.60;;
15931;SDS011;8065;49.520;11.284;2023-02-22T08:16:11;12.50;;;9.13;;
15931;SDS011;8065;49.520;11.284;2023-02-22T08:18:38;11.60;;;9.63;;
15931;SDS011;8065;49.520;11.284;2023-02-22T08:21:06;10.43;;;9.33;;
15931;SDS011;8065;49.520;11.284;2023-02-22T08:23:33;12.47;;;9.53;;
15931;SDS011;8065;49.520;11.284;2023-02-22T08:26:03;10.77;;;9.20;;
15931;SDS011;8065;49.520;11.284;2023-02-22T08:28:30;10.50;;;9.40;;
15931;SDS011;8065;49.520;11.284;2023-02-22T08:30:57;13.60;;;9.43;;
15931;SDS011;8065;49.520;11.284;2023-02-22T08:33:23;12.30;;;9.50;;
15931;SDS011;8065;49.520;11.284;2023-02-22T08:35:50;10.93;;;9.30;;
15931;SDS011;8065;49.520;11.284;2023-02-22T08:38:19;10.27;;;9.07;;
15931;SDS011;8065;49.520;11.284;2023-02-22T08:40:47;10.30;;;9.30;;
15931;SDS011;8065;49.520;11.284;2023-02-22T08:43:14;9.47;;;8.57;;
15931;SDS011;8065;49.520;11.284;2023-02-22T08:45:41;12.30;;;8.90;;
15931;SDS011;8065;49.520;11.284;2023-02-22T08:48:09;10.23;;;9.20;;
15931;SDS011;8065;49.520;11.284;2023-02-22T08:50:36;11.80;;;9.27;;
15931;SDS011;8065;49.520;11.284;2023-02-22T08:53:03;10.70;;;9.03;;
15931;SDS011;8065;49.520;11.284;2023-02-22T08:55:32;11.77;;;8.97;;
15931;SDS011;8065;49.520;11.284;2023-02-22T08:58:00;11.50;;;9.13;;
15931;SDS011;8065;49.520;11.284;2023-02-22T09:00:28;10.17;;;9.13;;
15931;SDS011;8065;49.520;11.284;2023-02-22T09:02:57;10.10;;;8.47;;
15931;SDS011;8065;49.520;11.284;2023-02-22T09:05:24;10.13;;;8.27;;
15931;SDS011;8065;49.520;11.284;2023-02-22T09:07:50;10.60;;;9.07;;
15931;SDS011;8065;49.520;11.284;2023-02-22T09:10:18;10.50;;;8.50;;
15931;SDS011;8065;49.520;11.284;2023-02-22T09:12:49;10.37;;;8.33;;
15931;SDS011;8065;49.520;11.284;2023-02-22T09:15:16;9.20;;;8.20;;
15931;SDS011;8065;49.520;11.284;2023-02-22T09:17:43;9.10;;;8.00;;
15931;SDS011;8065;49.520;11.284;2023-02-22T09:20:10;9.67;;;8.20;;
15931;SDS011;8065;49.520;11.284;2023-02-22T09:22:37;8.63;;;7.83;;
15931;SDS011;8065;49.520;11.284;2023-02-22T09:25:04;8.60;;;7.70;;
15931;SDS011;8065;49.520;11.284;2023-02-22T09:27:31;9.93;;;8.00;;
15931;SDS011;8065;49.520;11.284;2023-02-22T09:29:59;7.97;;;7.10;;
15931;SDS011;8065;49.520;11.284;2023-02-22T09:32:27;8.07;;;7.07;;
15931;SDS011;8065;49.520;11.284;2023-02-22T09:34:53;8.57;;;7.73;;
15931;SDS011;8065;49.520;11.284;2023-02-22T09:37:20;8.13;;;7.03;;
15931;SDS011;8065;49.520;11.284;2023-02-22T09:39:46;8.13;;;7.33;;
15931;SDS011;8065;49.520;11.284;2023-02-22T09:42:15;9.60;;;7.33;;
15931;SDS011;8065;49.520;11.284;2023-02-22T09:44:47;7.33;;;6.63;;
15931;SDS011;8065;49.520;11.284;2023-02-22T09:47:19;7.90;;;6.70;;
15931;SDS011;8065;49.520;11.284;2023-02-22T09:49:57;8.53;;;6.77;;
15931;SDS011;8065;49.520;11.284;2023-02-22T09:52:27;7.00;;;6.40;;
15931;SDS011;8065;49.520;11.284;2023-02-22T09:55:01;6.97;;;6.23;;
15931;SDS011;8065;49.520;11.284;2023-02-22T09:57:34;7.50;;;6.20;;
15931;SDS011;8065;49.520;11.284;2023-02-22T10:00:05;8.33;;;6.77;;
15931;SDS011;8065;49.520;11.284;2023-02-22T10:02:45;7.73;;;6.23;;
15931;SDS011;8065;49.520;11.284;2023-02-22T10:05:18;8.07;;;5.53;;
15931;SDS011;8065;49.520;11.284;2023-02-22T10:07:52;6.57;;;5.70;;
15931;SDS011;8065;49.520;11.284;2023-02-22T10:10:23;5.87;;;5.03;;
15931;SDS011;8065;49.520;11.284;2023-02-22T10:12:58;11.07;;;8.30;;
15931;SDS011;8065;49.520;11.284;2023-02-22T10:15:41;10.90;;;8.00;;
15931;SDS011;8065;49.520;11.284;2023-02-22T10:21:12;5.30;;;4.80;;
15931;SDS011;8065;49.520;11.284;2023-02-22T10:23:55;5.97;;;5.37;;
15931;SDS011;8065;49.520;11.284;2023-02-22T10:26:31;8.03;;;7.33;;
15931;SDS011;8065;49.520;11.284;2023-02-22T10:29:02;6.03;;;5.47;;
15931;SDS011;8065;49.520;11.284;2023-02-22T10:31:37;5.63;;;5.13;;
15931;SDS011;8065;49.520;11.284;2023-02-22T10:34:11;5.30;;;4.77;;
15931;SDS011;8065;49.520;11.284;2023-02-22T10:36:40;6.07;;;5.40;;
15931;SDS011;8065;49.520;11.284;2023-02-22T10:39:11;7.60;;;5.27;;
15931;SDS011;8065;49.520;11.284;2023-02-22T10:41:47;6.13;;;4.90;;
15931;SDS011;8065;49.520;11.284;2023-02-22T10:44:16;6.80;;;5.50;;
15931;SDS011;8065;49.520;11.284;2023-02-22T10:46:43;6.83;;;5.10;;
15931;SDS011;8065;49.520;11.284;2023-02-22T10:49:14;6.07;;;5.43;;
15931;SDS011;8065;49.520;11.284;2023-02-22T10:51:46;5.87;;;5.30;;
15931;SDS011;8065;49.520;11.284;2023-02-22T10:54:18;5.97;;;5.37;;
15931;SDS011;8065;49.520;11.284;2023-02-22T10:56:51;5.53;;;5.00;;
15931;SDS011;8065;49.520;11.284;2023-02-22T10:59:27;6.00;;;5.40;;
15931;SDS011;8065;49.520;11.284;2023-02-22T11:01:56;5.73;;;5.00;;
15931;SDS011;8065;49.520;11.284;2023-02-22T11:04:25;5.30;;;4.67;;
15931;SDS011;8065;49.520;11.284;2023-02-22T11:07:06;5.30;;;4.80;;
15931;SDS011;8065;49.520;11.284;2023-02-22T11:09:45;5.63;;;5.07;;
15931;SDS011;8065;49.520;11.284;2023-02-22T11:12:16;5.93;;;4.93;;
15931;SDS011;8065;49.520;11.284;2023-02-22T11:14:45;5.10;;;4.70;;
15931;SDS011;8065;49.520;11.284;2023-02-22T11:17:14;4.93;;;4.50;;
15931;SDS011;8065;49.520;11.284;2023-02-22T11:19:46;5.27;;;4.77;;
15931;SDS011;8065;49.520;11.284;2023-02-22T11:22:19;5.63;;;5.00;;
15931;SDS011;8065;49.520;11.284;2023-02-22T11:24:49;6.77;;;4.77;;
15931;SDS011;8065;49.520;11.284;2023-02-22T11:27:23;7.03;;;5.13;;
15931;SDS011;8065;49.520;11.284;2023-02-22T11:29:55;4.97;;;4.53;;
15931;SDS011;8065;49.520;11.284;2023-02-22T11:32:33;5.43;;;4.50;;
15931;SDS011;8065;49.520;11.284;2023-02-22T11:37:56;6.00;;;4.63;;
15931;SDS011;8065;49.520;11.284;2023-02-22T11:40:35;4.30;;;3.90;;
15931;SDS011;8065;49.520;11.284;2023-02-22T11:43:05;5.90;;;4.47;;
15931;SDS011;8065;49.520;11.284;2023-02-22T11:45:36;6.63;;;4.60;;
15931;SDS011;8065;49.520;11.284;2023-02-22T11:48:05;5.80;;;4.67;;
15931;SDS011;8065;49.520;11.284;2023-02-22T11:50:36;5.17;;;4.40;;
15931;SDS011;8065;49.520;11.284;2023-02-22T11:53:23;4.87;;;4.37;;
15931;SDS011;8065;49.520;11.284;2023-02-22T11:56:02;5.00;;;4.43;;
15931;SDS011;8065;49.520;11.284;2023-02-22T11:58:40;5.70;;;4.40;;
15931;SDS011;8065;49.520;11.284;2023-02-22T12:01:13;5.53;;;4.00;;
15931;SDS011;8065;49.520;11.284;2023-02-22T12:04:01;5.57;;;4.43;;
15931;SDS011;8065;49.520;11.284;2023-02-22T12:06:48;6.03;;;3.90;;
15931;SDS011;8065;49.520;11.284;2023-02-22T12:09:23;4.43;;;4.03;;
15931;SDS011;8065;49.520;11.284;2023-02-22T12:12:01;4.33;;;3.83;;
15931;SDS011;8065;49.520;11.284;2023-02-22T12:14:38;4.87;;;4.00;;
15931;SDS011;8065;49.520;11.284;2023-02-22T12:17:16;4.30;;;3.90;;
15931;SDS011;8065;49.520;11.284;2023-02-22T12:19:48;3.80;;;3.50;;
15931;SDS011;8065;49.520;11.284;2023-02-22T12:22:20;4.90;;;3.73;;
15931;SDS011;8065;49.520;11.284;2023-02-22T12:24:52;5.17;;;3.73;;
15931;SDS011;8065;49.520;11.284;2023-02-22T12:27:24;5.10;;;4.40;;
15931;SDS011;8065;49.520;11.284;2023-02-22T12:29:54;3.37;;;3.10;;
15931;SDS011;8065;49.520;11.284;2023-02-22T12:32:27;4.17;;;3.77;;
15931;SDS011;8065;49.520;11.284;2023-02-22T12:35:02;4.33;;;3.27;;
15931;SDS011;8065;49.520;11.284;2023-02-22T12:37:41;5.33;;;3.80;;
15931;SDS011;8065;49.520;11.284;2023-02-22T12:40:18;4.40;;;3.60;;
15931;SDS011;8065;49.520;11.284;2023-02-22T12:42:50;5.47;;;3.60;;
15931;SDS011;8065;49.520;11.284;2023-02-22T12:45:25;4.23;;;3.73;;
15931;SDS011;8065;49.520;11.284;2023-02-22T12:48:00;4.00;;;3.60;;
15931;SDS011;8065;49.520;11.284;2023-02-22T12:50:36;5.23;;;3.57;;
15931;SDS011;8065;49.520;11.284;2023-02-22T12:53:07;3.50;;;3.20;;
15931;SDS011;8065;49.520;11.284;2023-02-22T12:55:40;3.23;;;2.93;;
15931;SDS011;8065;49.520;11.284;2023-02-22T12:58:15;3.43;;;3.13;;
15931;SDS011;8065;49.520;11.284;2023-02-22T13:00:47;4.53;;;3.77;;
15931;SDS011;8065;49.520;11.284;2023-02-22T13:03:25;3.70;;;3.40;;
15931;SDS011;8065;49.520;11.284;2023-02-22T13:05:58;3.97;;;3.20;;
15931;SDS011;8065;49.520;11.284;2023-02-22T13:08:36;3.40;;;3.10;;
15931;SDS011;8065;49.520;11.284;2023-02-22T13:11:13;3.43;;;3.00;;
15931;SDS011;8065;49.520;11.284;2023-02-22T13:13:48;4.17;;;3.77;;
15931;SDS011;8065;49.520;11.284;2023-02-22T13:16:33;3.60;;;3.30;;
15931;SDS011;8065;49.520;11.284;2023-02-22T13:19:23;4.23;;;3.03;;
15931;SDS011;8065;49.520;11.284;2023-02-22T13:22:00;3.50;;;3.20;;
15931;SDS011;8065;49.520;11.284;2023-02-22T13:24:34;4.63;;;3.73;;
15931;SDS011;8065;49.520;11.284;2023-02-22T13:27:09;4.20;;;3.47;;
15931;SDS011;8065;49.520;11.284;2023-02-22T13:29:43;4.30;;;3.67;;
15931;SDS011;8065;49.520;11.284;2023-02-22T13:32:17;3.77;;;3.03;;
15931;SDS011;8065;49.520;11.284;2023-02-22T13:34:56;3.83;;;3.40;;
15931;SDS011;8065;49.520;11.284;2023-02-22T13:37:49;4.07;;;3.77;;
15931;SDS011;8065;49.520;11.284;2023-02-22T13:46:36;3.70;;;3.30;;
15931;SDS011;8065;49.520;11.284;2023-02-22T13:49:27;4.10;;;3.20;;
15931;SDS011;8065;49.520;11.284;2023-02-22T13:52:05;5.43;;;3.17;;
15931;SDS011;8065;49.520;11.284;2023-02-22T13:54:35;3.80;;;3.20;;
15931;SDS011;8065;49.520;11.284;2023-02-22T13:57:17;3.87;;;3.00;;
15931;SDS011;8065;49.520;11.284;2023-02-22T13:59:47;3.47;;;3.17;;
15931;SDS011;8065;49.520;11.284;2023-02-22T14:02:33;2.70;;;2.50;;
15931;SDS011;8065;49.520;11.284;2023-02-22T14:05:35;3.10;;;2.77;;
15931;SDS011;8065;49.520;11.284;2023-02-22T14:08:40;4.23;;;3.00;;
15931;SDS011;8065;49.520;11.284;2023-02-22T14:14:18;3.77;;;2.97;;
15931;SDS011;8065;49.520;11.284;2023-02-22T14:22:53;3.87;;;2.80;;
15931;SDS011;8065;49.520;11.284;2023-02-22T14:25:30;3.40;;;3.10;;
15931;SDS011;8065;49.520;11.284;2023-02-22T14:28:00;5.47;;;2.93;;
15931;SDS011;8065;49.520;11.284;2023-02-22T14:30:28;3.20;;;2.90;;
15931;SDS011;8065;49.520;11.284;2023-02-22T14:32:56;3.17;;;2.80;;
15931;SDS011;8065;49.520;11.284;2023-02-22T14:35:26;4.77;;;3.27;;
15931;SDS011;8065;49.520;11.284;2023-02-22T14:38:02;7.63;;;4.03;;
15931;SDS011;8065;49.520;11.284;2023-02-22T14:40:32;3.90;;;3.17;;
15931;SDS011;8065;49.520;11.284;2023-02-22T14:43:02;3.83;;;2.77;;
15931;SDS011;8065;49.520;11.284;2023-02-22T14:45:34;3.47;;;2.90;;
15931;SDS011;8065;49.520;11.284;2023-02-22T14:48:11;3.37;;;3.07;;
15931;SDS011;8065;49.520;11.284;2023-02-22T14:50:46;4.87;;;2.53;;
15931;SDS011;8065;49.520;11.284;2023-02-22T14:53:19;2.80;;;2.60;;
15931;SDS011;8065;49.520;11.284;2023-02-22T14:55:51;2.80;;;2.60;;
15931;SDS011;8065;49.520;11.284;2023-02-22T14:58:22;4.03;;;2.90;;
15931;SDS011;8065;49.520;11.284;2023-02-22T15:00:54;2.77;;;2.60;;
15931;SDS011;8065;49.520;11.284;2023-02-22T15:03:24;3.10;;;2.73;;
15931;SDS011;8065;49.520;11.284;2023-02-22T15:06:02;3.63;;;2.23;;
15931;SDS011;8065;49.520;11.284;2023-02-22T15:08:29;3.07;;;2.80;;
15931;SDS011;8065;49.520;11.284;2023-02-22T15:10:58;2.67;;;2.47;;
15931;SDS011;8065;49.520;11.284;2023-02-22T15:13:27;5.87;;;2.67;;
15931;SDS011;8065;49.520;11.284;2023-02-22T15:15:57;2.47;;;2.23;;
15931;SDS011;8065;49.520;11.284;2023-02-22T15:18:25;3.37;;;2.80;;
15931;SDS011;8065;49.520;11.284;2023-02-22T15:20:54;3.13;;;2.83;;
15931;SDS011;8065;49.520;11.284;2023-02-22T15:23:25;4.93;;;4.20;;
15931;SDS011;8065;49.520;11.284;2023-02-22T15:25:57;4.27;;;3.83;;
15931;SDS011;8065;49.520;11.284;2023-02-22T15:28:25;14.40;;;8.23;;
15931;SDS011;8065;49.520;11.284;2023-02-22T15:33:39;5.80;;;5.20;;
15931;SDS011;8065;49.520;11.284;2023-02-22T15:36:11;5.33;;;3.47;;